Time;durP1;ratioP1;P1;durP2;ratioP2;P2;SDS_P1;SDS_P2;PMS_P1;PMS_P2;Temp;Humidity;BMP_temperature;BMP_pressure;BME280_temperature;BME280_humidity;BME280_pressure;Samples;Min_cycle;Max_cycle;Signal;HPM_P1;HPM_P2
2022/04/26 03:37:48;;;;;;;9.37;6.10;;;3.40;99.90;;;;;;10467056;28;20522;-79
2022/04/26 03:43:10;;;;;;;7.77;5.10;;;3.40;99.90;;;;;;10466175;28;20227;-79
2022/04/26 03:48:32;;;;;;;8.37;5.70;;;3.40;99.90;;;;;;10486666;28;20264;-79
2022/04/26 03:53:53;;;;;;;8.00;5.70;;;3.40;99.90;;;;;;10507136;28;20192;-79
2022/04/26 03:59:15;;;;;;;9.23;6.57;;;;;;;;;;10506562;28;20243;-79
2022/04/26 04:04:36;;;;;;;10.67;7.10;;;3.40;99.90;;;;;;10506810;28;20202;-79
2022/04/26 04:09:57;;;;;;;9.10;6.23;;;3.40;99.90;;;;;;10493444;28;20243;-79
2022/04/26 04:15:18;;;;;;;10.63;7.57;;;3.40;99.90;;;;;;10506602;28;20504;-79
2022/04/26 04:20:40;;;;;;;11.80;8.40;;;3.40;99.90;;;;;;10513928;28;20539;-79
2022/04/26 04:26:01;;;;;;;12.50;9.33;;;3.40;99.90;;;;;;10520952;28;20236;-79
2022/04/26 04:31:22;;;;;;;13.77;10.27;;;3.50;99.90;;;;;;10505231;28;20354;-79
2022/04/26 04:36:44;;;;;;;13.93;8.80;;;3.60;99.90;;;;;;10505653;28;20209;-79
2022/04/26 04:42:06;;;;;;;11.60;8.67;;;3.60;99.90;;;;;;10504923;28;20235;-79
2022/04/26 04:47:27;;;;;;;18.27;12.17;;;3.70;99.90;;;;;;10491218;28;20241;-79
2022/04/26 04:52:48;;;;;;;17.23;12.13;;;3.80;99.90;;;;;;10478020;28;20490;-79
2022/04/26 04:58:10;;;;;;;12.87;9.47;;;4.00;99.90;;;;;;10478225;28;20490;-79
2022/04/26 05:03:31;;;;;;;10.87;7.70;;;4.20;99.90;;;;;;10449477;28;20204;-79
2022/04/26 05:08:52;;;;;;;8.90;7.03;;;4.40;99.90;;;;;;10463091;28;20221;-79
2022/04/26 05:14:14;;;;;;;7.77;6.43;;;4.60;99.90;;;;;;10559165;28;20195;-79
2022/04/26 05:19:35;;;;;;;8.10;6.07;;;4.60;99.90;;;;;;10517844;28;20196;-80
2022/04/26 05:24:57;;;;;;;8.90;6.70;;;4.80;99.90;;;;;;10497765;28;20540;-79
2022/04/26 05:30:19;;;;;;;9.67;7.63;;;4.90;99.90;;;;;;10478121;28;20223;-79
2022/04/26 05:35:40;;;;;;;9.60;7.43;;;5.00;99.90;;;;;;10448450;28;20196;-80
2022/04/26 05:41:02;;;;;;;11.37;7.30;;;5.20;99.90;;;;;;10479519;28;20200;-79
2022/04/26 05:46:23;;;;;;;9.67;6.60;;;5.30;99.90;;;;;;10471066;28;20228;-79
2022/04/26 05:51:45;;;;;;;11.80;6.33;;;5.50;99.90;;;;;;10484720;28;20424;-79
2022/04/26 05:57:06;;;;;;;10.40;6.10;;;5.90;99.90;;;;;;10484447;28;20235;-79
2022/04/26 06:02:28;;;;;;;7.37;5.60;;;6.60;99.90;;;;;;10485236;28;20198;-79
2022/04/26 06:07:49;;;;;;;6.97;5.00;;;7.40;99.90;;;;;;10469808;28;20233;-80
2022/04/26 06:13:11;;;;;;;8.43;5.47;;;8.20;99.90;;;;;;10535865;28;20296;-79
2022/04/26 06:18:32;;;;;;;7.73;3.93;;;8.90;99.90;;;;;;10490266;28;20204;-79
2022/04/26 06:23:53;;;;;;;5.90;3.93;;;;;;;;;;10484820;28;20229;-79
2022/04/26 06:29:15;;;;;;;6.60;4.43;;;11.00;99.90;;;;;;10484062;28;20230;-80
2022/04/26 06:34:36;;;;;;;7.13;4.40;;;;;;;;;;10496920;28;20203;-81
2022/04/26 06:39:58;;;;;;;5.50;4.03;;;12.80;98.40;;;;;;10475036;28;20282;-80
2022/04/26 06:45:20;;;;;;;5.03;3.60;;;13.30;97.20;;;;;;10483812;28;20196;-79
2022/04/26 06:50:42;;;;;;;7.78;3.70;;;;;;;;;;10483678;28;20208;-80
2022/04/26 06:56:03;;;;;;;6.50;3.70;;;14.50;92.50;;;;;;10467577;28;20200;-80
2022/04/26 07:01:25;;;;;;;6.05;3.72;;;15.00;88.70;;;;;;10467793;28;20206;-80
2022/04/26 07:06:58;;;;;;;5.93;3.40;;;15.40;79.40;;;;;;10481830;28;20237;-80
2022/04/26 07:12:19;;;;;;;3.38;2.80;;;15.80;64.50;;;;;;10518952;28;20216;-80
2022/04/26 07:17:41;;;;;;;3.40;3.00;;;16.10;56.00;;;;;;10482564;28;20243;-80
2022/04/26 07:23:03;;;;;;;3.80;2.50;;;16.60;44.70;;;;;;10520327;28;20219;-80
2022/04/26 07:28:24;;;;;;;4.57;2.50;;;16.90;39.40;;;;;;10515263;28;20461;-79
2022/04/26 07:39:26;;;;;;;3.55;2.20;;;17.90;31.90;;;;;;10559436;28;20191;-80
2022/04/26 07:44:48;;;;;;;2.63;2.00;;;18.50;1.00;;;;;;10532652;28;20375;-79
2022/04/26 07:50:09;;;;;;;2.60;2.40;;;18.80;99.90;;;;;;10462929;28;20234;-85
2022/04/26 07:55:32;;;;;;;3.47;2.60;;;19.20;99.90;;;;;;10474588;28;20206;-81
2022/04/26 08:00:54;;;;;;;3.67;2.10;;;19.40;99.90;;;;;;10460533;28;20204;-81
2022/04/26 08:06:15;;;;;;;4.32;3.13;;;19.60;99.90;;;;;;10459328;28;20462;-81
2022/04/26 08:11:36;;;;;;;4.13;2.15;;;20.00;92.60;;;;;;10499855;28;20277;-82
2022/04/26 08:16:58;;;;;;;12.18;6.50;;;20.40;1.00;;;;;;10497242;28;20326;-81
2022/04/26 08:22:19;;;;;;;3.58;2.45;;;20.40;1.00;;;;;;10474852;28;20257;-79
2022/04/26 08:27:40;;;;;;;7.47;4.13;;;20.50;1.00;;;;;;10475835;28;20285;-81
2022/04/26 08:33:02;;;;;;;5.03;3.08;;;20.60;1.00;;;;;;10514944;28;20253;-83
2022/04/26 08:38:23;;;;;;;5.63;3.33;;;21.10;1.00;;;;;;10513826;28;20277;-79
2022/04/26 08:43:44;;;;;;;1.88;1.75;;;21.50;1.00;;;;;;10515632;28;20218;-81
2022/04/26 08:54:46;;;;;;;3.65;2.38;;;21.50;1.00;;;;;;10499639;28;20206;-81
2022/04/26 09:00:11;;;;;;;3.78;2.53;;;21.10;1.00;;;;;;10499894;28;20202;-85
2022/04/26 09:05:32;;;;;;;3.05;2.30;;;21.10;1.00;;;;;;10514902;28;20225;-82
2022/04/26 09:10:54;;;;;;;3.75;2.65;;;21.40;1.00;;;;;;10497025;28;20434;-82
2022/04/26 09:16:17;;;;;;;3.22;2.35;;;21.60;1.00;;;;;;10516060;28;20497;-81
2022/04/26 09:21:54;;;;;;;3.88;2.67;;;22.00;1.00;;;;;;10514684;28;20213;-82
2022/04/26 09:27:16;;;;;;;6.57;2.80;;;22.40;99.90;;;;;;10473492;28;20254;-80
2022/04/26 09:32:49;;;;;;;4.07;2.38;;;21.60;99.90;;;;;;10474299;28;20200;-81
2022/04/26 09:38:23;;;;;;;2.97;1.70;;;21.20;99.90;;;;;;10471834;28;20339;-82
2022/04/26 09:43:54;;;;;;;3.47;2.58;;;21.20;1.00;;;;;;10470800;28;20482;-82
2022/04/26 09:49:21;;;;;;;9.38;3.53;;;21.70;99.90;;;;;;10457325;28;20538;-81
2022/04/26 09:54:42;;;;;;;8.63;5.68;;;22.30;1.00;;;;;;10479153;28;20195;-81
2022/04/26 10:00:10;;;;;;;2.35;1.75;;;22.40;1.00;;;;;;10484195;28;20195;-82
2022/04/26 10:05:34;;;;;;;1.90;1.67;;;22.40;99.90;;;;;;10512262;28;20286;-83
2022/04/26 10:10:56;;;;;;;3.35;1.38;;;22.60;99.90;;;;;;10511002;28;20226;-81
2022/04/26 10:16:21;;;;;;;10.18;4.85;;;22.00;1.00;;;;;;10514520;28;20217;-80
2022/04/26 10:21:46;;;;;;;3.40;2.00;;;21.10;1.00;;;;;;10500154;28;20196;-81
2022/04/26 10:27:22;;;;;;;2.60;1.75;;;21.20;99.90;;;;;;10499407;28;20247;-81
2022/04/26 10:32:44;;;;;;;6.47;2.50;;;21.70;99.90;;;;;;10505553;28;20215;-81
2022/04/26 10:38:11;;;;;;;2.15;1.60;;;20.70;93.10;;;;;;10504733;28;20291;-80
2022/04/26 10:43:33;;;;;;;4.57;3.30;;;19.70;99.90;;;;;;10488251;28;20212;-79
2022/04/26 10:48:55;;;;;;;3.97;2.28;;;19.70;99.90;;;;;;10463761;28;20334;-80
2022/04/26 10:54:51;;;;;;;2.83;2.20;;;18.80;99.90;;;;;;10462963;28;20210;-80
2022/04/26 11:00:15;;;;;;;1.95;1.73;;;18.20;99.90;;;;;;10477280;28;20199;-80
2022/04/26 11:05:38;;;;;;;3.45;2.47;;;19.40;1.00;;;;;;10478222;28;20793;-80
2022/04/26 11:11:10;;;;;;;3.45;2.05;;;20.00;99.90;;;;;;10508754;28;20229;-80
2022/04/26 11:16:32;;;;;;;3.85;1.77;;;19.40;1.00;;;;;;10513272;28;20271;-79
2022/04/26 11:21:54;;;;;;;3.88;1.90;;;19.70;1.00;;;;;;10515921;28;20204;-79
2022/04/26 11:33:01;;;;;;;2.50;2.30;;;18.10;1.00;;;;;;10513616;28;20199;-80
2022/04/26 11:38:23;;;;;;;7.32;3.00;;;17.60;1.00;;;;;;10502055;28;20218;-80
2022/04/26 11:43:45;;;;;;;6.00;3.63;;;18.50;1.00;;;;;;10483388;28;20439;-79
2022/04/26 11:49:08;;;;;;;3.75;2.70;;;18.20;1.00;;;;;;10474753;28;20227;-80
2022/04/26 11:54:39;;;;;;;2.33;1.85;;;17.60;99.90;;;;;;10473673;28;20285;-81
2022/04/26 12:00:00;;;;;;;3.35;2.38;;;17.00;99.90;;;;;;10474200;28;20218;-79
2022/04/26 12:05:22;;;;;;;5.28;2.40;;;16.60;99.90;;;;;;10472394;28;20201;-80
2022/04/26 12:10:47;;;;;;;3.30;2.25;;;16.30;99.90;;;;;;10497322;28;20239;-80
2022/04/26 12:16:20;;;;;;;2.50;1.92;;;16.20;99.90;;;;;;10508083;28;20247;-79
2022/04/26 12:21:59;;;;;;;2.58;1.92;;;16.20;99.90;;;;;;10499882;28;20236;-79
2022/04/26 12:27:26;;;;;;;2.53;2.05;;;16.30;99.90;;;;;;10514670;28;20551;-78
2022/04/26 12:32:48;;;;;;;3.45;1.70;;;16.40;99.90;;;;;;10499811;28;20204;-80
2022/04/26 12:38:09;;;;;;;4.38;2.13;;;16.40;99.90;;;;;;10513106;28;20736;-79
2022/04/26 12:43:32;;;;;;;2.40;2.20;;;16.80;49.90;;;;;;10497208;28;20500;-80
2022/04/26 12:54:54;;;;;;;6.50;1.92;;;17.50;99.90;;;;;;10511695;28;20230;-79
2022/04/26 13:00:18;;;;;;;4.60;1.60;;;17.70;1.00;;;;;;10512434;28;20195;-79
2022/04/26 13:05:46;;;;;;;4.80;2.13;;;17.80;1.00;;;;;;10512044;28;20581;-79
2022/04/26 13:11:09;;;;;;;4.15;1.70;;;18.30;1.00;;;;;;10481801;28;20237;-78
2022/04/26 13:16:31;;;;;;;4.57;1.45;;;18.00;1.00;;;;;;10495254;28;20237;-80
2022/04/26 13:21:52;;;;;;;2.38;1.45;;;17.90;1.00;;;;;;10511597;28;20198;-79
2022/04/26 13:27:14;;;;;;;4.40;1.88;;;17.40;1.00;;;;;;10511596;28;20263;-79
2022/04/26 13:32:35;;;;;;;6.10;1.90;;;17.00;1.00;;;;;;10510437;28;20243;-80
2022/04/26 13:37:59;;;;;;;2.42;1.52;;;16.70;1.00;;;;;;10497186;28;20197;-79
2022/04/26 13:43:23;;;;;;;7.35;2.28;;;16.60;1.00;;;;;;10510076;28;20198;-80
2022/04/26 13:49:05;;;;;;;3.33;1.48;;;16.60;1.00;;;;;;10511522;28;20223;-80
2022/04/26 13:54:27;;;;;;;4.00;2.08;;;16.60;1.00;;;;;;10473207;28;20259;-79
2022/04/26 13:59:48;;;;;;;2.13;1.58;;;16.50;1.00;;;;;;10469896;28;20283;-80
2022/04/26 14:05:10;;;;;;;3.28;2.15;;;16.50;1.00;;;;;;10476575;28;20375;-80
2022/04/26 14:10:31;;;;;;;4.05;1.85;;;16.80;1.00;;;;;;10510622;28;20222;-80
2022/04/26 14:21:48;;;;;;;2.13;1.45;;;17.10;1.00;;;;;;10478468;28;20252;-81
2022/04/26 14:27:10;;;;;;;2.83;1.77;;;17.30;1.00;;;;;;10476378;28;20267;-81
2022/04/26 14:32:31;;;;;;;10.18;4.28;;;17.30;1.00;;;;;;10476727;28;20202;-80
2022/04/26 14:37:53;;;;;;;4.32;2.38;;;17.40;1.00;;;;;;10508588;28;20209;-80
2022/04/26 14:43:14;;;;;;;4.00;2.13;;;17.40;1.00;;;;;;10498456;28;20198;-79
2022/04/26 14:48:36;;;;;;;2.33;1.48;;;17.30;1.00;;;;;;10514981;28;20309;-80
2022/04/26 14:53:57;;;;;;;1.55;1.40;;;17.20;1.00;;;;;;10503160;28;20203;-80
2022/04/26 14:59:19;;;;;;;5.20;2.08;;;16.90;1.00;;;;;;10524453;28;20201;-80
2022/04/26 15:04:41;;;;;;;3.28;1.70;;;16.70;1.00;;;;;;10484321;28;20225;-80
2022/04/26 15:10:02;;;;;;;2.20;1.30;;;16.70;1.00;;;;;;10480907;28;21024;-80
2022/04/26 15:21:06;;;;;;;2.95;2.00;;;16.50;1.00;;;;;;10467012;28;20251;-81
2022/04/26 15:26:28;;;;;;;3.70;1.85;;;16.30;1.00;;;;;;10480691;28;20234;-81
2022/04/26 15:31:50;;;;;;;2.05;1.65;;;16.20;1.00;;;;;;10481359;28;20209;-80
2022/04/26 15:37:12;;;;;;;6.22;2.00;;;16.10;1.00;;;;;;10485936;28;20198;-81
2022/04/26 15:42:34;;;;;;;9.00;4.53;;;16.00;1.00;;;;;;10496262;28;20438;-80
2022/04/26 15:47:55;;;;;;;6.07;3.67;;;16.10;1.00;;;;;;10508910;28;20225;-80
2022/04/26 15:53:16;;;;;;;8.40;3.47;;;16.00;1.00;;;;;;10493908;28;20197;-80
2022/04/26 15:58:37;;;;;;;5.78;4.00;;;15.90;1.00;;;;;;10521972;28;20211;-80
2022/04/26 16:04:00;;;;;;;6.85;3.38;;;15.70;1.00;;;;;;10521356;28;20410;-81
2022/04/26 16:20:40;;;;;;;7.88;2.92;;;15.40;1.00;;;;;;10507419;28;20197;-81
2022/04/26 16:26:02;;;;;;;3.60;2.92;;;15.20;1.00;;;;;;10519712;28;20430;-81
2022/04/26 16:31:32;;;;;;;5.68;3.90;;;15.10;1.00;;;;;;10505598;28;20562;-80
2022/04/26 16:36:54;;;;;;;5.97;3.60;;;14.90;1.00;;;;;;10491783;28;20220;-79
2022/04/26 16:42:15;;;;;;;3.88;2.97;;;14.80;1.00;;;;;;10517413;28;20208;-80
2022/04/26 16:47:37;;;;;;;4.57;3.00;;;14.70;1.00;;;;;;10519466;28;20210;-80
2022/04/26 16:53:00;;;;;;;4.63;3.22;;;14.60;1.00;;;;;;10506567;28;20256;-79
2022/04/26 16:58:22;;;;;;;4.95;3.40;;;14.50;1.00;;;;;;10491528;28;20428;-80
2022/04/26 17:03:43;;;;;;;5.05;3.80;;;14.50;1.00;;;;;;10518970;28;20202;-80
2022/04/26 17:09:04;;;;;;;5.15;3.97;;;14.30;99.90;;;;;;10499000;28;20234;-80
2022/04/26 17:14:25;;;;;;;7.55;5.00;;;14.10;99.90;;;;;;10497703;28;20204;-80
2022/04/26 17:19:47;;;;;;;7.22;4.95;;;13.90;1.00;;;;;;10478051;28;20194;-80
2022/04/26 17:25:15;;;;;;;7.38;5.40;;;13.80;1.00;;;;;;10477463;28;20450;-80
2022/04/26 17:30:57;;;;;;;9.30;7.00;;;13.60;36.50;;;;;;10482965;28;20218;-81
2022/04/26 17:36:18;;;;;;;10.25;6.45;;;13.40;1.00;;;;;;10476527;28;20200;-80
2022/04/26 17:41:40;;;;;;;9.15;5.60;;;13.10;1.00;;;;;;10498795;28;20189;-79
2022/04/26 17:47:03;;;;;;;8.90;6.53;;;12.90;1.00;;;;;;10504337;28;20205;-79
2022/04/26 17:58:19;;;;;;;15.25;8.40;;;12.80;1.00;;;;;;10503554;28;20205;-80
2022/04/26 18:03:41;;;;;;;15.30;8.95;;;12.60;1.00;;;;;;10518371;28;20271;-80
2022/04/26 18:09:03;;;;;;;16.50;9.65;;;12.50;1.00;;;;;;10497785;28;20535;-80
2022/04/26 18:14:24;;;;;;;15.48;8.02;;;12.30;1.00;;;;;;10495065;28;20196;-80
2022/04/26 18:19:45;;;;;;;23.30;11.57;;;12.20;99.90;;;;;;10476100;28;20199;-80
2022/04/26 18:25:07;;;;;;;19.25;10.23;;;12.10;99.90;;;;;;10475652;28;20240;-80
2022/04/26 18:30:28;;;;;;;18.13;9.73;;;11.90;99.90;;;;;;10461480;28;20282;-80
2022/04/26 18:35:49;;;;;;;12.73;7.72;;;11.80;99.90;;;;;;10476004;28;20200;-80
2022/04/26 18:41:12;;;;;;;11.10;7.28;;;11.70;99.90;;;;;;10468484;28;20536;-80
2022/04/26 18:46:34;;;;;;;10.90;7.13;;;11.70;99.90;;;;;;10517063;28;20392;-79
2022/04/26 18:51:57;;;;;;;13.73;8.30;;;11.60;99.90;;;;;;10468655;28;20249;-80
2022/04/26 18:57:18;;;;;;;18.80;10.50;;;11.50;99.90;;;;;;10484294;28;20188;-79
2022/04/26 19:02:40;;;;;;;24.65;13.80;;;11.40;99.90;;;;;;10482580;28;20423;-81
2022/04/26 19:08:02;;;;;;;25.73;13.23;;;11.30;99.90;;;;;;10482298;28;20251;-81
2022/04/26 19:13:23;;;;;;;14.77;9.73;;;11.20;99.90;;;;;;10497904;28;20195;-80
2022/04/26 19:18:45;;;;;;;16.55;10.45;;;11.10;36.80;;;;;;10486946;28;20501;-80
2022/04/26 19:24:06;;;;;;;22.40;13.35;;;11.10;3.40;;;;;;10467250;28;20599;-79
2022/04/26 19:29:27;;;;;;;26.08;17.42;;;10.90;98.40;;;;;;10482363;28;20218;-80
2022/04/26 19:34:49;;;;;;;27.33;18.45;;;10.90;99.90;;;;;;10453372;28;20203;-80
2022/04/26 19:40:10;;;;;;;34.40;21.00;;;10.80;99.90;;;;;;10481088;28;20639;-80
2022/04/26 19:45:31;;;;;;;39.73;21.53;;;10.60;99.90;;;;;;10521898;28;20290;-80
2022/04/26 19:56:33;;;;;;;33.97;19.80;;;10.30;1.00;;;;;;10521493;28;20252;-80
2022/04/26 20:01:54;;;;;;;35.83;21.33;;;10.30;1.00;;;;;;10522203;28;20187;-80
2022/04/26 20:07:21;;;;;;;38.50;22.63;;;10.10;38.70;;;;;;10507724;28;20196;-80
2022/04/26 20:12:42;;;;;;;42.22;25.33;;;10.00;1.00;;;;;;10493359;28;20525;-80
2022/04/26 20:18:04;;;;;;;49.17;29.93;;;9.90;1.00;;;;;;10520374;28;20207;-80
2022/04/26 20:23:26;;;;;;;61.10;34.33;;;9.90;1.00;;;;;;10481791;28;20188;-80
2022/04/26 20:34:26;;;;;;;46.47;28.07;;;9.60;1.00;;;;;;10479057;28;20244;-79
2022/04/26 20:39:48;;;;;;;46.40;26.77;;;9.50;99.90;;;;;;10484170;28;20195;-80
2022/04/26 20:45:10;;;;;;;44.27;26.87;;;9.50;1.00;;;;;;10475123;28;20232;-80
2022/04/26 20:50:31;;;;;;;59.03;29.77;;;9.30;1.00;;;;;;10477790;28;20521;-80
2022/04/26 20:55:53;;;;;;;48.57;28.93;;;9.30;1.00;;;;;;10477823;28;20198;-80
2022/04/26 21:01:14;;;;;;;49.23;26.43;;;9.20;99.90;;;;;;10478722;28;20188;-79
2022/04/26 21:06:36;;;;;;;57.47;31.00;;;9.10;99.90;;;;;;10463134;28;20215;-80
2022/04/26 21:11:57;;;;;;;101.33;51.47;;;8.90;99.90;;;;;;10493434;28;20229;-79
2022/04/26 21:17:19;;;;;;;154.60;81.13;;;8.70;1.00;;;;;;10478766;28;20213;-80
2022/04/26 21:22:40;;;;;;;202.97;108.37;;;8.70;1.00;;;;;;10462838;28;20373;-79
2022/04/26 21:28:01;;;;;;;131.67;75.23;;;8.60;1.00;;;;;;10476642;28;20249;-80
2022/04/26 21:33:22;;;;;;;139.67;71.37;;;8.60;1.00;;;;;;10476935;28;20193;-80
2022/04/26 21:38:43;;;;;;;112.03;57.40;;;8.50;1.00;;;;;;10462348;28;20202;-80
2022/04/26 21:44:05;;;;;;;56.77;32.20;;;8.30;99.90;;;;;;10462513;28;20383;-80
2022/04/26 21:55:07;;;;;;;32.20;18.87;;;8.30;1.00;;;;;;10476542;28;20289;-80
2022/04/26 22:00:30;;;;;;;29.30;17.17;;;8.20;1.00;;;;;;10462550;28;20483;-79
2022/04/26 22:05:51;;;;;;;29.77;15.90;;;8.20;1.00;;;;;;10462006;28;20206;-81
2022/04/26 22:11:12;;;;;;;24.23;14.83;;;8.00;1.00;;;;;;10471253;28;20237;-79
2022/04/26 22:16:34;;;;;;;21.10;11.83;;;7.90;1.00;;;;;;10503033;28;20201;-80
2022/04/26 22:21:58;;;;;;;15.73;10.13;;;7.70;1.00;;;;;;10502580;28;20442;-80
2022/04/26 22:27:20;;;;;;;20.93;12.10;;;7.70;99.90;;;;;;10510212;28;20305;-80
2022/04/26 22:32:41;;;;;;;29.93;17.67;;;7.70;99.90;;;;;;10510279;28;20243;-79
2022/04/26 22:38:03;;;;;;;33.97;18.97;;;7.60;99.90;;;;;;10524820;28;20195;-80
2022/04/26 22:43:25;;;;;;;43.53;23.83;;;;;;;;;;10509569;28;20233;-79
2022/04/26 22:48:47;;;;;;;57.30;27.07;;;7.30;1.00;;;;;;10524049;28;20273;-79
2022/04/26 22:54:08;;;;;;;56.10;27.53;;;7.00;99.90;;;;;;10496057;28;20196;-80
2022/04/26 22:59:29;;;;;;;33.30;19.57;;;6.90;99.90;;;;;;10525121;28;20201;-79
2022/04/26 23:04:51;;;;;;;29.77;16.80;;;;;;;;;;10523786;28;20309;-80
2022/04/26 23:10:13;;;;;;;31.23;18.20;;;6.60;99.90;;;;;;10498125;28;20223;-80
2022/04/26 23:15:34;;;;;;;42.00;22.67;;;6.50;1.00;;;;;;10523718;28;20274;-79
2022/04/26 23:20:55;;;;;;;39.87;23.50;;;6.50;1.00;;;;;;10481537;28;20235;-80
2022/04/26 23:26:16;;;;;;;43.90;23.17;;;6.40;1.00;;;;;;10482328;28;20230;-80
2022/04/26 23:45:23;;;;;;;39.43;19.80;;;;;;;;;;10519143;28;20192;-78
2022/04/26 23:56:29;;;;;;;40.40;22.07;;;6.10;1.00;;;;;;10502630;28;20202;-79
